KRIC/RIC METAR and TAF weather

Enter ICAO airport designator
Station Type Date Time Source
KRIC METAR 2019/02/20 07:54 UTC NOAA

KRIC 200754Z 09004KT 10SM OVC055 03/M03 A3055 RMK AO2 SLP351 T00281033


Station Type Date Time Source
KRIC Decoded METAR 2019/02/20 07:54 UTC NOAA

RICHMOND INTERNATIONAL AIRPORT, VA, United States (KRIC) 37-31N 077-19W 50M
Feb 20, 2019 - 02:54 AM EST / 2019.02.20 0754 UTC
Wind: from the E (090 degrees) at 5 MPH (4 KT):0
Visibility: 10 mile(s):0
Sky conditions: overcast
Temperature: 37.0 F (2.8 C)
Dew Point: 26.1 F (-3.3 C)
Relative Humidity: 64%
Pressure (altimeter): 30.55 in. Hg (1034 hPa)
ob: KRIC 200754Z 09004KT 10SM OVC055 03/M03 A3055 RMK AO2 SLP351 T00281033
cycle: 8

Station Type Date Time Source
KRIC TAF 2019/02/20 06:33 UTC NOAA

TAF KRIC 200530Z 2006/2106 12003KT P6SM VCSH OVC090
FM200900 07005KT 4SM -SNPL OVC020
TEMPO 2009/2012 2SM -SN BR
FM201200 08006KT 3SM -FZRAPL BR SCT008 OVC012
FM201500 08007KT 3SM -RA BR OVC006


Example: see airport list